Time;durP1;ratioP1;P1;durP2;ratioP2;P2;SDS_P1;SDS_P2;PMS_P1;PMS_P2;Temp;Humidity;BMP_temperature;BMP_pressure;BME280_temperature;BME280_humidity;BME280_pressure;Samples;Min_cycle;Max_cycle;Signal;HPM_P1;HPM_P2
2020/12/11 00:01:33;;;;;;;11.43;9.70;;;2.40;55.10;;;;;;5031106;28;20234;-81
2020/12/11 00:04:00;;;;;;;13.88;10.80;;;2.30;55.60;;;;;;5031437;28;20204;-81
2020/12/11 00:06:26;;;;;;;13.40;9.63;;;2.10;56.00;;;;;;5028531;28;20259;-81
2020/12/11 00:08:53;;;;;;;12.95;9.75;;;2.10;56.80;;;;;;5019566;28;20230;-81
2020/12/11 00:11:27;;;;;;;11.93;9.15;;;2.00;57.30;;;;;;5018752;28;20231;-80
2020/12/11 00:13:53;;;;;;;10.70;8.32;;;1.90;57.20;;;;;;5018293;28;20679;-80
2020/12/11 00:16:20;;;;;;;13.60;9.55;;;1.90;58.20;;;;;;5019828;28;20227;-80
2020/12/11 00:18:47;;;;;;;11.43;9.90;;;1.80;58.50;;;;;;5018789;28;20227;-80
2020/12/11 00:21:14;;;;;;;12.00;9.40;;;1.70;58.90;;;;;;5024090;28;20204;-80
2020/12/11 00:23:40;;;;;;;13.38;10.93;;;1.60;59.90;;;;;;5023733;28;20216;-79
2020/12/11 00:26:06;;;;;;;15.65;10.02;;;1.60;60.10;;;;;;5016252;28;20216;-80
2020/12/11 00:28:33;;;;;;;15.95;10.75;;;1.50;61.30;;;;;;5024607;28;20253;-81
2020/12/11 00:30:59;;;;;;;13.27;10.90;;;1.50;61.30;;;;;;5036816;28;20275;-82
2020/12/11 00:33:26;;;;;;;12.23;9.85;;;1.50;61.30;;;;;;5037528;28;20219;-82
2020/12/11 00:35:54;;;;;;;13.00;8.95;;;1.40;62.80;;;;;;5052995;23;20242;-79
2020/12/11 00:38:21;;;;;;;13.75;9.70;;;1.40;62.50;;;;;;5021460;28;20218;-79
2020/12/11 00:40:48;;;;;;;14.57;10.88;;;1.30;63.20;;;;;;5021826;28;20196;-79
2020/12/11 00:43:14;;;;;;;14.00;9.40;;;1.30;63.80;;;;;;5024971;28;20203;-81
2020/12/11 00:45:41;;;;;;;15.10;10.52;;;1.20;64.60;;;;;;5023586;28;20247;-83
2020/12/11 00:48:08;;;;;;;14.80;9.75;;;1.10;64.40;;;;;;5020975;28;20231;-80
2020/12/11 00:50:34;;;;;;;16.42;10.20;;;1.00;65.30;;;;;;5020390;28;20206;-80
2020/12/11 00:53:01;;;;;;;15.07;10.23;;;1.00;65.90;;;;;;5022837;28;20266;-79
2020/12/11 00:55:28;;;;;;;13.40;9.73;;;1.00;66.70;;;;;;5022835;28;20204;-80
2020/12/11 00:57:54;;;;;;;15.70;10.45;;;0.90;66.70;;;;;;5025365;28;20215;-80
2020/12/11 01:00:21;;;;;;;13.45;10.00;;;0.90;67.20;;;;;;5027664;28;20208;-79
2020/12/11 01:02:47;;;;;;;16.20;10.90;;;0.90;67.70;;;;;;5022770;28;20203;-80
2020/12/11 01:05:14;;;;;;;14.60;10.45;;;0.90;68.00;;;;;;5023428;28;20211;-79
2020/12/11 01:07:40;;;;;;;15.13;10.57;;;0.80;68.00;;;;;;5028418;28;20196;-80
2020/12/11 01:10:08;;;;;;;12.93;10.18;;;0.70;68.20;;;;;;5032049;28;20199;-81
2020/12/11 01:12:35;;;;;;;14.77;10.05;;;0.80;68.60;;;;;;5025011;28;20262;-82
2020/12/11 01:15:02;;;;;;;13.60;10.20;;;0.80;68.20;;;;;;5025180;28;20242;-80
2020/12/11 01:17:28;;;;;;;15.27;9.63;;;0.80;67.90;;;;;;5022890;28;20239;-81
2020/12/11 01:19:55;;;;;;;14.45;10.52;;;0.80;67.80;;;;;;5024802;28;20212;-79
2020/12/11 01:22:21;;;;;;;13.30;9.55;;;0.80;67.90;;;;;;5024304;28;20203;-83
2020/12/11 01:24:48;;;;;;;14.05;10.20;;;0.70;67.90;;;;;;5023459;28;20592;-80
2020/12/11 01:27:15;;;;;;;13.88;9.65;;;0.70;68.20;;;;;;5025663;28;20254;-79
2020/12/11 01:29:41;;;;;;;13.52;9.65;;;0.60;68.60;;;;;;5034782;28;20225;-81
2020/12/11 01:32:11;;;;;;;12.23;9.85;;;0.60;69.30;;;;;;5035766;28;20214;-82
2020/12/11 01:34:37;;;;;;;13.95;9.95;;;0.60;69.30;;;;;;5035814;28;20263;-82
2020/12/11 01:37:04;;;;;;;12.90;9.93;;;0.50;69.20;;;;;;5032384;28;20255;-80
2020/12/11 01:39:31;;;;;;;14.50;9.35;;;0.50;69.20;;;;;;5028337;28;20223;-79
2020/12/11 01:41:59;;;;;;;13.52;9.32;;;0.40;69.40;;;;;;5025909;28;20199;-79
2020/12/11 01:44:27;;;;;;;15.43;9.82;;;0.30;70.20;;;;;;5027803;28;20212;-80
2020/12/11 01:46:56;;;;;;;12.00;9.95;;;0.20;71.10;;;;;;5031738;28;20239;-79
2020/12/11 01:49:24;;;;;;;16.02;10.93;;;0.20;71.90;;;;;;5029647;28;20207;-79
2020/12/11 01:51:50;;;;;;;13.40;10.10;;;0.30;73.20;;;;;;5031887;28;20258;-80
2020/12/11 01:54:17;;;;;;;13.48;10.10;;;0.40;73.30;;;;;;5032934;28;20219;-80
2020/12/11 01:56:51;;;;;;;13.48;9.80;;;0.40;72.40;;;;;;5035081;28;20247;-81
2020/12/11 01:59:26;;;;;;;13.95;9.45;;;0.40;72.60;;;;;;5036687;28;20203;-80
2020/12/11 02:01:58;;;;;;;11.57;9.80;;;0.40;72.80;;;;;;5035932;28;20190;-82
2020/12/11 02:04:24;;;;;;;14.45;10.25;;;0.30;73.20;;;;;;5036316;28;20215;-81
2020/12/11 02:06:51;;;;;;;12.95;10.32;;;0.30;73.30;;;;;;5036123;28;20216;-82
2020/12/11 02:09:19;;;;;;;14.40;10.35;;;0.30;73.30;;;;;;5036589;28;20199;-81
2020/12/11 02:11:48;;;;;;;12.63;8.93;;;0.40;73.30;;;;;;5036249;28;20439;-82
2020/12/11 02:14:15;;;;;;;15.25;10.20;;;0.40;73.30;;;;;;5036352;28;20184;-78
2020/12/11 02:16:41;;;;;;;13.75;9.40;;;0.40;73.30;;;;;;5034626;28;20231;-80
2020/12/11 02:19:09;;;;;;;15.48;9.95;;;0.40;73.30;;;;;;5022895;28;20254;-80
2020/12/11 02:21:36;;;;;;;12.93;9.25;;;0.40;73.30;;;;;;5024926;28;20242;-79
2020/12/11 02:24:03;;;;;;;12.65;9.20;;;0.60;72.30;;;;;;5027229;28;20643;-79
2020/12/11 02:26:29;;;;;;;15.70;9.13;;;0.50;71.90;;;;;;5025710;28;20289;-80
2020/12/11 02:28:56;;;;;;;13.50;9.65;;;0.50;72.10;;;;;;5023814;28;20220;-79
2020/12/11 02:31:22;;;;;;;13.05;8.70;;;0.50;72.00;;;;;;5024615;28;20276;-80
2020/12/11 02:33:49;;;;;;;14.27;9.98;;;0.60;72.20;;;;;;5024194;28;20222;-79
2020/12/11 02:36:19;;;;;;;13.38;8.60;;;0.60;72.20;;;;;;5024591;28;20240;-80
2020/12/11 02:38:47;;;;;;;13.25;9.30;;;0.60;71.90;;;;;;5028689;28;20218;-80
2020/12/11 02:41:13;;;;;;;12.30;8.88;;;0.70;71.50;;;;;;5027410;28;20199;-79
2020/12/11 02:43:40;;;;;;;12.93;8.90;;;0.70;70.60;;;;;;5024244;28;20239;-79
2020/12/11 02:46:06;;;;;;;12.35;8.88;;;0.80;69.80;;;;;;5024570;28;20622;-79
2020/12/11 02:48:33;;;;;;;11.73;8.70;;;0.70;69.40;;;;;;5022905;28;20231;-78
2020/12/11 02:51:00;;;;;;;12.48;9.10;;;0.70;69.40;;;;;;5025591;28;20290;-79
2020/12/11 02:53:27;;;;;;;11.45;8.70;;;0.70;69.90;;;;;;5024611;28;20664;-80
2020/12/11 02:55:57;;;;;;;14.27;9.38;;;0.70;69.80;;;;;;5021329;28;20228;-78
2020/12/11 02:58:24;;;;;;;13.45;9.13;;;0.70;70.00;;;;;;5022837;28;20196;-79
2020/12/11 03:00:50;;;;;;;13.43;9.15;;;0.80;69.90;;;;;;5028939;28;20194;-79
2020/12/11 03:03:16;;;;;;;14.15;9.32;;;0.80;69.50;;;;;;5027593;28;20683;-79
2020/12/11 03:05:43;;;;;;;16.77;8.98;;;0.80;69.50;;;;;;5018740;28;20223;-79
2020/12/11 03:08:09;;;;;;;9.77;7.95;;;0.80;69.50;;;;;;5019921;28;20267;-80
2020/12/11 03:10:35;;;;;;;11.65;8.70;;;0.70;69.40;;;;;;5018917;28;20239;-79
2020/12/11 03:13:03;;;;;;;14.30;9.73;;;0.70;69.40;;;;;;5017230;28;20746;-78
2020/12/11 03:15:29;;;;;;;12.45;9.45;;;0.70;69.50;;;;;;5016690;28;20284;-79
2020/12/11 03:17:55;;;;;;;13.50;9.98;;;0.60;70.00;;;;;;5016711;28;20211;-80
2020/12/11 03:20:25;;;;;;;13.00;9.38;;;0.60;70.40;;;;;;5017508;28;20211;-78
2020/12/11 03:22:53;;;;;;;14.73;9.43;;;0.60;70.90;;;;;;5016004;28;20260;-77
2020/12/11 03:25:19;;;;;;;15.27;10.40;;;0.60;71.30;;;;;;5015564;28;20646;-78
2020/12/11 03:27:48;;;;;;;11.88;9.77;;;0.50;72.00;;;;;;5014556;28;20294;-79
2020/12/11 03:30:15;;;;;;;13.20;9.10;;;0.50;71.80;;;;;;5015851;28;20200;-79
2020/12/11 03:32:42;;;;;;;13.70;9.05;;;0.50;71.90;;;;;;5015716;28;20227;-80
2020/12/11 03:35:08;;;;;;;13.65;8.30;;;0.50;72.30;;;;;;5016218;28;20246;-79
2020/12/11 03:37:35;;;;;;;15.07;9.35;;;0.50;72.50;;;;;;5015814;28;20263;-78
2020/12/11 03:40:01;;;;;;;12.98;8.40;;;0.50;72.50;;;;;;5016585;28;20254;-78
2020/12/11 03:42:27;;;;;;;13.85;8.98;;;0.50;72.50;;;;;;5018795;28;20208;-79
2020/12/11 03:44:54;;;;;;;14.57;9.85;;;0.40;72.60;;;;;;5023564;28;20495;-79
2020/12/11 03:47:21;;;;;;;12.35;9.02;;;0.40;72.90;;;;;;5024596;28;20220;-79
2020/12/11 03:49:48;;;;;;;10.63;7.90;;;0.50;73.00;;;;;;5025740;28;20234;-78
2020/12/11 03:52:14;;;;;;;15.13;9.18;;;0.40;72.50;;;;;;5031861;28;20246;-79
2020/12/11 03:54:41;;;;;;;13.68;8.23;;;0.40;72.80;;;;;;5036145;28;20207;-79
2020/12/11 03:57:07;;;;;;;12.90;8.80;;;0.40;73.30;;;;;;5036351;28;20212;-80
2020/12/11 03:59:34;;;;;;;12.52;9.00;;;0.30;72.80;;;;;;5038053;28;20188;-80
2020/12/11 04:02:00;;;;;;;11.45;7.88;;;0.30;73.30;;;;;;5038339;28;20204;-80
2020/12/11 04:04:28;;;;;;;11.80;8.65;;;0.40;73.30;;;;;;5034146;28;20216;-79
2020/12/11 04:06:54;;;;;;;12.73;8.77;;;0.40;73.30;;;;;;5037641;28;20234;-80
2020/12/11 04:09:21;;;;;;;12.82;8.60;;;0.40;73.30;;;;;;5036141;28;20195;-80
2020/12/11 04:11:49;;;;;;;12.95;8.95;;;0.40;73.20;;;;;;5034735;28;20207;-80
2020/12/11 04:14:15;;;;;;;14.00;9.18;;;0.50;72.80;;;;;;5038233;28;20192;-80
2020/12/11 04:16:42;;;;;;;13.30;8.90;;;0.50;72.30;;;;;;5037849;28;20243;-79
2020/12/11 04:19:08;;;;;;;12.68;8.95;;;0.60;72.40;;;;;;5038227;28;20188;-80
2020/12/11 04:21:35;;;;;;;11.77;8.25;;;0.60;72.20;;;;;;5038119;28;20198;-80
2020/12/11 04:24:02;;;;;;;12.50;8.20;;;0.60;71.70;;;;;;5037841;28;20196;-80
2020/12/11 04:26:28;;;;;;;12.18;7.75;;;0.60;72.00;;;;;;5028346;28;20227;-80
2020/12/11 04:28:55;;;;;;;12.73;8.85;;;0.70;71.50;;;;;;5020155;28;20266;-79
2020/12/11 04:31:21;;;;;;;13.00;8.65;;;0.70;70.80;;;;;;5020517;28;20196;-78
2020/12/11 04:33:47;;;;;;;11.20;7.82;;;0.60;70.60;;;;;;5016537;28;20196;-81
2020/12/11 04:36:17;;;;;;;10.45;8.45;;;0.60;70.40;;;;;;5015498;28;20267;-79
2020/12/11 04:38:50;;;;;;;10.68;7.65;;;0.70;70.10;;;;;;5016171;28;20235;-79
2020/12/11 04:41:19;;;;;;;12.50;8.88;;;0.60;69.30;;;;;;5017885;28;20227;-82
2020/12/11 04:43:50;;;;;;;15.15;9.15;;;0.60;70.10;;;;;;5022851;28;20208;-80
2020/12/11 04:46:16;;;;;;;11.13;7.82;;;0.50;70.50;;;;;;5016778;28;20747;-80
2020/12/11 04:48:43;;;;;;;11.80;8.77;;;0.40;71.40;;;;;;5020308;28;20200;-79
2020/12/11 04:51:10;;;;;;;10.95;8.15;;;0.30;71.80;;;;;;5021253;28;20207;-79
2020/12/11 04:53:38;;;;;;;13.07;8.23;;;0.20;72.30;;;;;;5027751;28;20246;-79
2020/12/11 04:56:06;;;;;;;11.77;8.65;;;0.00;73.00;;;;;;5016360;28;20818;-79
2020/12/11 04:58:36;;;;;;;13.80;9.13;;;0.00;74.50;;;;;;5017236;28;20296;-80
2020/12/11 05:01:04;;;;;;;13.07;10.02;;;0.00;75.20;;;;;;5017257;28;20256;-81
2020/12/11 05:03:32;;;;;;;14.95;9.45;;;0.00;76.40;;;;;;5016207;28;20244;-79
2020/12/11 05:05:58;;;;;;;16.70;9.35;;;0.00;77.20;;;;;;5020449;28;20243;-79
2020/12/11 05:08:25;;;;;;;13.70;9.20;;;0.10;77.30;;;;;;5026358;28;20196;-79
2020/12/11 05:10:51;;;;;;;18.52;10.50;;;0.10;77.30;;;;;;5024836;28;20223;-79
2020/12/11 05:13:20;;;;;;;13.68;9.43;;;0.10;77.30;;;;;;5017543;28;20253;-79
2020/12/11 05:16:07;;;;;;;15.30;9.05;;;0.00;77.20;;;;;;5021889;28;20753;-81
2020/12/11 05:18:34;;;;;;;12.23;8.13;;;0.00;77.20;;;;;;5022965;28;20215;-79
2020/12/11 05:21:17;;;;;;;13.10;9.98;;;-0.10;77.10;;;;;;5023738;28;20211;-79
2020/12/11 05:24:01;;;;;;;13.95;9.43;;;-0.20;77.00;;;;;;5023365;28;20203;-79
2020/12/11 05:26:36;;;;;;;12.80;8.65;;;-0.30;77.40;;;;;;5025359;28;20246;-81
2020/12/11 05:29:04;;;;;;;11.93;8.57;;;-0.30;78.50;;;;;;5027293;28;20215;-80
2020/12/11 05:31:31;;;;;;;14.00;8.45;;;-0.20;79.00;;;;;;5028633;28;20219;-79
2020/12/11 05:34:03;;;;;;;11.75;8.23;;;-0.20;78.90;;;;;;5028859;28;20262;-79
2020/12/11 05:36:41;;;;;;;12.95;8.88;;;-0.20;78.70;;;;;;5034200;28;20280;-80
2020/12/11 05:39:07;;;;;;;12.38;8.55;;;-0.20;79.00;;;;;;5038455;28;20175;-80
2020/12/11 05:41:34;;;;;;;9.95;7.80;;;-0.20;78.40;;;;;;5038695;28;20200;-82
2020/12/11 05:44:01;;;;;;;10.68;7.82;;;-0.10;79.10;;;;;;5038741;28;20199;-81
2020/12/11 05:46:44;;;;;;;10.95;8.23;;;-0.10;78.10;;;;;;5037250;28;20280;-79
2020/12/11 05:49:22;;;;;;;12.50;8.57;;;-0.10;78.10;;;;;;5036320;28;20196;-80
2020/12/11 05:51:56;;;;;;;11.25;7.57;;;-0.10;77.70;;;;;;5034669;28;20222;-78
2020/12/11 05:54:23;;;;;;;13.90;9.40;;;0.00;77.20;;;;;;5010327;28;20224;-80
2020/12/11 05:56:52;;;;;;;15.52;9.70;;;0.00;77.20;;;;;;5009706;28;20229;-79
2020/12/11 05:59:21;;;;;;;15.18;10.23;;;0.10;76.20;;;;;;5013999;28;20232;-79
2020/12/11 06:01:55;;;;;;;12.63;8.93;;;0.20;75.40;;;;;;5011141;28;20244;-80
2020/12/11 06:04:23;;;;;;;14.15;8.57;;;0.20;74.90;;;;;;5011836;28;20181;-81
2020/12/11 06:06:54;;;;;;;13.88;10.07;;;0.20;74.80;;;;;;5010194;28;20256;-78
2020/12/11 06:09:26;;;;;;;18.42;9.98;;;0.20;74.60;;;;;;5007729;28;20185;-79
2020/12/11 06:11:58;;;;;;;15.82;10.63;;;0.20;74.70;;;;;;5008908;28;20209;-82
2020/12/11 06:14:35;;;;;;;11.93;8.38;;;0.20;74.60;;;;;;5007743;28;20189;-80
2020/12/11 06:17:03;;;;;;;14.55;9.95;;;0.30;74.90;;;;;;5014691;28;20236;-79
2020/12/11 06:19:30;;;;;;;14.93;9.52;;;0.40;74.20;;;;;;5018315;28;20219;-79
2020/12/11 06:21:56;;;;;;;16.88;10.65;;;0.40;73.80;;;;;;5018503;28;20220;-80
2020/12/11 06:24:30;;;;;;;15.68;9.45;;;0.50;73.50;;;;;;5021560;28;20189;-80
2020/12/11 06:26:58;;;;;;;11.50;9.20;;;0.50;73.40;;;;;;5020893;28;20224;-79
2020/12/11 06:29:28;;;;;;;14.60;9.73;;;0.50;73.10;;;;;;5007107;28;20213;-79
2020/12/11 06:31:55;;;;;;;21.60;10.00;;;0.60;73.00;;;;;;5003022;28;20212;-81
2020/12/11 06:34:25;;;;;;;14.48;10.40;;;0.60;72.00;;;;;;5001569;28;20201;-78
2020/12/11 06:36:55;;;;;;;16.85;11.00;;;0.60;71.90;;;;;;5033290;23;20227;-79
2020/12/11 06:39:40;;;;;;;15.65;10.43;;;0.80;71.60;;;;;;5029992;28;20202;-80
2020/12/11 06:42:07;;;;;;;13.98;9.40;;;0.80;70.70;;;;;;5019855;28;20206;-80
2020/12/11 06:44:34;;;;;;;16.38;10.98;;;0.80;70.50;;;;;;5018810;28;20246;-79
2020/12/11 06:47:05;;;;;;;15.60;10.40;;;0.70;69.90;;;;;;5016440;28;20235;-80
2020/12/11 06:49:32;;;;;;;15.55;9.70;;;0.80;70.20;;;;;;5017995;28;20586;-79
2020/12/11 06:52:12;;;;;;;14.38;9.65;;;0.90;70.30;;;;;;5016880;28;20296;-79
2020/12/11 06:54:52;;;;;;;16.00;10.70;;;1.00;70.40;;;;;;5017992;28;20258;-80
2020/12/11 06:57:42;;;;;;;14.98;10.23;;;0.90;69.50;;;;;;5020460;28;20239;-79
2020/12/11 07:00:36;;;;;;;14.10;10.07;;;1.10;69.70;;;;;;5021317;28;20211;-80
2020/12/11 07:03:16;;;;;;;14.82;9.32;;;1.10;68.80;;;;;;5017761;28;20629;-80
2020/12/11 07:05:44;;;;;;;15.40;10.05;;;1.20;68.00;;;;;;5024767;28;20202;-79
2020/12/11 07:08:17;;;;;;;20.80;11.50;;;1.20;67.00;;;;;;5028282;28;20211;-79
2020/12/11 07:10:44;;;;;;;17.27;11.57;;;1.10;67.20;;;;;;5028770;28;20199;-78
2020/12/11 07:13:11;;;;;;;15.20;10.10;;;1.00;67.70;;;;;;5025093;28;20251;-79
2020/12/11 07:15:38;;;;;;;35.35;11.80;;;1.10;67.90;;;;;;5022786;28;20246;-79
2020/12/11 07:18:12;;;;;;;17.30;10.60;;;1.00;68.30;;;;;;5023415;28;20573;-80
2020/12/11 07:20:38;;;;;;;15.82;9.85;;;1.10;68.60;;;;;;5024936;28;20233;-79
2020/12/11 07:23:06;;;;;;;16.70;10.63;;;1.10;68.10;;;;;;5024514;28;20211;-79
2020/12/11 07:25:35;;;;;;;16.42;10.18;;;1.10;68.00;;;;;;5025541;28;20211;-80
2020/12/11 07:28:03;;;;;;;15.30;9.77;;;1.00;68.00;;;;;;5016407;28;20338;-80
2020/12/11 07:30:31;;;;;;;18.17;11.73;;;1.10;68.00;;;;;;5015066;28;20230;-76
2020/12/11 07:32:57;;;;;;;20.42;11.57;;;1.10;68.00;;;;;;5018399;28;20311;-78
2020/12/11 07:35:24;;;;;;;18.15;11.07;;;1.10;67.90;;;;;;5018044;28;20212;-80
2020/12/11 07:37:52;;;;;;;18.90;10.90;;;1.20;68.10;;;;;;5012564;28;20330;-79
2020/12/11 07:40:20;;;;;;;17.88;11.30;;;1.30;67.40;;;;;;5016057;28;20271;-79
2020/12/11 07:42:47;;;;;;;15.38;10.02;;;1.40;66.90;;;;;;5014763;28;20570;-79
2020/12/11 07:45:24;;;;;;;15.65;10.18;;;1.20;66.30;;;;;;5017404;28;20219;-80
2020/12/11 07:47:51;;;;;;;15.60;9.82;;;1.20;67.20;;;;;;5015716;28;20314;-82
2020/12/11 07:50:21;;;;;;;19.38;11.13;;;1.30;67.30;;;;;;5015387;28;20204;-78
2020/12/11 07:52:50;;;;;;;16.85;11.25;;;1.50;67.50;;;;;;5015847;28;20226;-80
2020/12/11 07:55:16;;;;;;;16.08;10.75;;;1.70;66.70;;;;;;5015568;28;20204;-81
2020/12/11 07:57:50;;;;;;;19.13;10.40;;;1.80;66.00;;;;;;5017159;28;20258;-78
2020/12/11 08:00:17;;;;;;;20.45;10.57;;;1.90;65.90;;;;;;5017343;28;20192;-80
2020/12/11 08:02:44;;;;;;;16.60;11.82;;;2.00;65.00;;;;;;5015962;28;20235;-81
2020/12/11 08:05:11;;;;;;;15.30;10.07;;;2.10;64.50;;;;;;5016641;28;20727;-77
2020/12/11 08:07:37;;;;;;;21.77;11.48;;;2.10;63.40;;;;;;5016300;28;20311;-78
2020/12/11 08:10:08;;;;;;;14.73;10.27;;;2.10;62.80;;;;;;5018080;28;20243;-79
2020/12/11 08:12:35;;;;;;;15.60;10.85;;;2.20;61.90;;;;;;5019325;28;20267;-78
2020/12/11 08:15:03;;;;;;;18.15;10.15;;;2.40;62.10;;;;;;5015769;28;20290;-79
2020/12/11 08:17:31;;;;;;;12.57;9.02;;;2.30;61.00;;;;;;5014568;28;20322;-80
2020/12/11 08:19:59;;;;;;;15.15;9.90;;;2.10;61.00;;;;;;5017002;28;20297;-78
2020/12/11 08:22:33;;;;;;;15.15;10.23;;;2.10;61.80;;;;;;5016521;28;20267;-78
2020/12/11 08:25:00;;;;;;;14.30;10.48;;;2.40;61.00;;;;;;5017981;28;20211;-80
2020/12/11 08:27:28;;;;;;;16.55;10.70;;;2.40;60.80;;;;;;5001559;28;20320;-79
2020/12/11 08:30:08;;;;;;;13.95;9.35;;;2.60;60.10;;;;;;4994944;28;20219;-80
2020/12/11 08:32:35;;;;;;;11.55;7.00;;;2.60;59.80;;;;;;4994678;28;20215;-79
2020/12/11 08:35:01;;;;;;;11.80;8.45;;;2.70;58.90;;;;;;5016389;28;20211;-79
2020/12/11 08:37:27;;;;;;;10.70;8.07;;;2.70;58.80;;;;;;5028127;28;20267;-79
2020/12/11 08:40:04;;;;;;;10.73;7.53;;;2.60;58.20;;;;;;5018010;28;20246;-78
2020/12/11 08:42:34;;;;;;;13.07;7.93;;;2.60;58.30;;;;;;5013812;28;20286;-79
2020/12/11 08:45:22;;;;;;;10.25;6.85;;;2.60;58.60;;;;;;5013726;28;20207;-79
2020/12/11 08:48:20;;;;;;;6.65;6.05;;;2.50;58.80;;;;;;5012413;28;20794;-79
2020/12/11 08:50:48;;;;;;;8.23;6.05;;;2.50;58.80;;;;;;5013196;28;20204;-78
2020/12/11 08:53:16;;;;;;;13.55;7.88;;;2.50;58.40;;;;;;5016379;28;20258;-80
2020/12/11 08:55:43;;;;;;;12.82;6.97;;;2.60;58.90;;;;;;5017950;28;20353;-79
2020/12/11 08:58:09;;;;;;;16.15;8.00;;;2.50;59.00;;;;;;5014867;28;20558;-78
2020/12/11 09:00:43;;;;;;;20.00;8.60;;;2.30;60.70;;;;;;5013719;28;20204;-78
2020/12/11 09:03:10;;;;;;;13.13;7.05;;;2.30;61.30;;;;;;5019653;28;20207;-78
2020/12/11 09:05:36;;;;;;;14.80;7.15;;;2.40;61.90;;;;;;5013246;28;20211;-78
2020/12/11 09:08:03;;;;;;;15.25;7.10;;;2.60;61.00;;;;;;5014831;28;20696;-78
2020/12/11 09:10:29;;;;;;;9.32;7.28;;;2.60;60.70;;;;;;5013592;28;20286;-78
2020/12/11 09:12:55;;;;;;;10.48;6.80;;;2.80;60.00;;;;;;5013965;28;20323;-79
2020/12/11 09:15:23;;;;;;;10.85;7.68;;;2.90;59.30;;;;;;5019297;28;20203;-78
2020/12/11 09:17:50;;;;;;;13.20;7.72;;;2.90;58.90;;;;;;5029696;28;20233;-79
2020/12/11 09:20:17;;;;;;;10.68;7.22;;;3.00;58.50;;;;;;5024594;28;20643;-78
2020/12/11 09:22:43;;;;;;;12.57;8.25;;;3.10;58.30;;;;;;5012769;28;20208;-78
2020/12/11 09:25:09;;;;;;;11.65;7.95;;;3.10;58.30;;;;;;5012185;28;20270;-79
2020/12/11 09:27:39;;;;;;;10.40;7.75;;;2.80;58.40;;;;;;5011610;28;20232;-79
2020/12/11 09:30:15;;;;;;;10.45;8.00;;;2.60;59.70;;;;;;5013170;28;20481;-79
2020/12/11 09:32:51;;;;;;;9.60;7.80;;;2.80;59.20;;;;;;4993693;28;20556;-79
2020/12/11 09:35:18;;;;;;;15.45;8.05;;;2.90;58.40;;;;;;4993500;28;20282;-78
2020/12/11 09:37:49;;;;;;;15.68;7.38;;;3.20;57.90;;;;;;4993178;28;20318;-78
2020/12/11 09:40:17;;;;;;;13.10;8.05;;;3.40;56.50;;;;;;4995274;28;20644;-79
2020/12/11 09:42:55;;;;;;;8.80;7.00;;;3.60;55.40;;;;;;4994998;28;20574;-79
2020/12/11 09:45:26;;;;;;;10.60;7.60;;;3.40;55.50;;;;;;4994745;28;20192;-79
2020/12/11 09:50:43;;;;;;;9.70;7.32;;;3.50;54.00;;;;;;4992719;28;20215;-79
2020/12/11 09:53:19;;;;;;;12.52;7.45;;;3.50;54.00;;;;;;5017733;28;20278;-78
2020/12/11 09:55:48;;;;;;;13.25;7.00;;;3.60;54.10;;;;;;5013769;28;20257;-79
2020/12/11 09:58:15;;;;;;;14.43;7.57;;;3.60;54.10;;;;;;5015461;28;20223;-78
2020/12/11 10:00:44;;;;;;;8.13;6.45;;;3.30;53.90;;;;;;5022965;28;20213;-79
2020/12/11 10:03:13;;;;;;;10.63;7.47;;;3.40;54.70;;;;;;5018162;28;20207;-78
2020/12/11 10:05:41;;;;;;;9.32;7.03;;;3.50;54.00;;;;;;5021246;28;20279;-80
2020/12/11 10:08:08;;;;;;;9.65;6.38;;;3.60;54.10;;;;;;5029678;28;20223;-80
2020/12/11 10:10:34;;;;;;;9.65;7.25;;;3.60;54.10;;;;;;5021385;28;20218;-79
2020/12/11 10:13:01;;;;;;;11.18;7.75;;;3.60;54.10;;;;;;5021834;28;20251;-79
2020/12/11 10:15:28;;;;;;;10.30;7.45;;;3.50;54.00;;;;;;5014781;28;20266;-79
2020/12/11 10:17:54;;;;;;;11.13;8.43;;;3.60;54.10;;;;;;5014305;28;20314;-79
2020/12/11 10:20:21;;;;;;;12.10;8.95;;;3.30;54.60;;;;;;5014093;28;20208;-79
2020/12/11 10:22:49;;;;;;;12.82;8.77;;;3.40;55.40;;;;;;5013704;28;20208;-79
2020/12/11 10:25:16;;;;;;;12.13;9.00;;;3.10;55.50;;;;;;5014214;28;20290;-78
2020/12/11 10:27:42;;;;;;;10.80;8.15;;;2.80;57.90;;;;;;5013243;28;20610;-78
2020/12/11 10:30:09;;;;;;;13.35;9.45;;;2.80;58.60;;;;;;5014613;28;20294;-79
2020/12/11 10:32:35;;;;;;;12.18;8.82;;;2.90;58.80;;;;;;5012500;28;20672;-78
2020/12/11 10:35:02;;;;;;;13.95;9.48;;;2.90;58.60;;;;;;5012956;28;20527;-78
2020/12/11 10:37:28;;;;;;;13.73;9.38;;;3.10;58.50;;;;;;5015291;28;20326;-78
2020/12/11 10:39:55;;;;;;;12.60;8.73;;;3.20;58.10;;;;;;5016769;28;20208;-78
2020/12/11 10:42:22;;;;;;;14.20;9.50;;;3.20;58.30;;;;;;5016958;28;20655;-78
2020/12/11 10:44:48;;;;;;;12.68;8.45;;;3.40;58.70;;;;;;5023438;28;20665;-79
2020/12/11 10:47:15;;;;;;;15.98;9.45;;;3.80;58.90;;;;;;5017803;28;20243;-79
2020/12/11 10:49:41;;;;;;;16.27;10.10;;;3.50;58.60;;;;;;5021014;28;20230;-80
2020/12/11 10:52:08;;;;;;;14.10;10.20;;;3.50;59.60;;;;;;5026094;28;20228;-79
2020/12/11 10:54:34;;;;;;;14.80;9.95;;;3.40;61.00;;;;;;5025147;28;20254;-81
2020/12/11 10:57:01;;;;;;;17.00;9.52;;;3.60;61.10;;;;;;5026700;28;20224;-81
2020/12/11 10:59:27;;;;;;;19.35;11.32;;;3.90;61.10;;;;;;5025968;28;20270;-80
2020/12/11 11:01:54;;;;;;;17.90;10.40;;;4.30;59.30;;;;;;5021521;28;20215;-78
2020/12/11 11:04:21;;;;;;;17.17;10.85;;;4.30;58.40;;;;;;5019592;28;20692;-80
2020/12/11 11:06:51;;;;;;;15.43;10.50;;;4.60;57.30;;;;;;5022285;28;20232;-78
2020/12/11 11:09:30;;;;;;;15.00;11.38;;;4.90;57.40;;;;;;5027363;28;20263;-80
2020/12/11 11:12:03;;;;;;;15.13;10.18;;;4.80;55.70;;;;;;5020164;28;20233;-80
2020/12/11 11:20:08;;;;;;;16.35;10.38;;;4.30;57.30;;;;;;5003921;28;20205;-79
2020/12/11 11:22:45;;;;;;;13.80;9.55;;;4.60;56.80;;;;;;5025603;28;20216;-78
2020/12/11 11:25:40;;;;;;;14.40;10.00;;;4.90;55.60;;;;;;5022093;28;20569;-79
2020/12/11 11:28:07;;;;;;;14.70;10.13;;;5.00;55.30;;;;;;5019483;28;20213;-79
2020/12/11 11:30:34;;;;;;;15.32;10.48;;;4.90;55.20;;;;;;5019579;28;20405;-80
2020/12/11 11:33:01;;;;;;;18.00;10.63;;;4.80;55.20;;;;;;5029102;28;20237;-80
2020/12/11 11:35:30;;;;;;;14.98;9.55;;;4.90;55.20;;;;;;5029587;28;20209;-79
2020/12/11 11:37:57;;;;;;;15.18;10.27;;;4.90;55.20;;;;;;5019146;28;20263;-80
2020/12/11 11:40:24;;;;;;;15.77;10.40;;;5.00;55.30;;;;;;5019866;28;20245;-79
2020/12/11 11:42:51;;;;;;;13.88;9.85;;;5.10;55.40;;;;;;5019752;28;20215;-81
2020/12/11 11:45:19;;;;;;;14.88;10.27;;;5.00;55.30;;;;;;5019754;28;20208;-80
2020/12/11 11:47:50;;;;;;;16.17;9.63;;;5.10;55.40;;;;;;5017967;28;20268;-80
2020/12/11 11:50:31;;;;;;;12.65;9.65;;;5.10;55.40;;;;;;5021785;28;20216;-79
2020/12/11 11:53:01;;;;;;;17.00;10.50;;;4.80;55.50;;;;;;5026425;28;20217;-80
2020/12/11 11:55:27;;;;;;;12.35;9.55;;;5.00;56.30;;;;;;5028086;28;20239;-80
2020/12/11 11:57:54;;;;;;;13.82;10.43;;;5.10;55.40;;;;;;5026943;28;20216;-80
2020/12/11 12:00:20;;;;;;;17.65;9.73;;;5.20;55.50;;;;;;5031209;28;20201;-80
2020/12/11 12:02:48;;;;;;;13.77;9.25;;;5.40;55.70;;;;;;5031091;28;20646;-82
2020/12/11 12:05:15;;;;;;;12.73;9.32;;;5.60;54.50;;;;;;5021273;28;20233;-80
2020/12/11 12:07:41;;;;;;;14.60;9.15;;;5.70;54.20;;;;;;5016716;28;20736;-80
2020/12/11 12:10:09;;;;;;;11.40;8.73;;;5.90;53.20;;;;;;5018524;28;20304;-79
2020/12/11 12:12:38;;;;;;;13.30;8.95;;;5.90;52.70;;;;;;5019753;28;20212;-80
2020/12/11 12:15:05;;;;;;;14.70;9.43;;;5.80;52.80;;;;;;5020238;28;20223;-79
2020/12/11 12:17:34;;;;;;;17.17;10.05;;;5.80;52.60;;;;;;5020345;28;20231;-80
2020/12/11 12:20:07;;;;;;;20.58;11.15;;;5.70;53.50;;;;;;5020104;28;20259;-79
2020/12/11 12:28:24;;;;;;;12.30;8.85;;;5.70;53.60;;;;;;5014792;28;20592;-79
2020/12/11 12:30:50;;;;;;;15.20;9.38;;;5.70;53.70;;;;;;5016746;28;20216;-79
2020/12/11 12:38:57;;;;;;;13.38;9.90;;;5.30;55.60;;;;;;5013601;28;20228;-79
2020/12/11 12:44:07;;;;;;;13.07;9.65;;;5.30;55.60;;;;;;5019614;28;20182;-80
2020/12/11 12:46:34;;;;;;;12.60;9.52;;;5.40;55.70;;;;;;5019250;28;20228;-79
2020/12/11 12:49:00;;;;;;;14.23;9.98;;;5.40;55.70;;;;;;5023528;28;20228;-80
2020/12/11 12:51:27;;;;;;;14.40;10.15;;;5.30;55.60;;;;;;5024357;28;20242;-78
2020/12/11 12:53:54;;;;;;;13.77;10.02;;;5.30;55.60;;;;;;5018500;28;20700;-80
2020/12/11 12:56:45;;;;;;;15.25;11.15;;;5.20;55.50;;;;;;5018824;28;20846;-81
2020/12/11 12:59:15;;;;;;;14.40;9.88;;;5.20;55.50;;;;;;5021973;28;20209;-79
2020/12/11 13:01:59;;;;;;;14.00;9.57;;;5.20;55.50;;;;;;5030277;28;20209;-82
2020/12/11 13:04:41;;;;;;;16.50;10.85;;;5.30;55.60;;;;;;5034737;28;20196;-79
2020/12/11 13:07:08;;;;;;;16.25;10.43;;;5.30;55.60;;;;;;5014805;28;20313;-79
2020/12/11 13:09:35;;;;;;;16.80;11.27;;;5.40;55.70;;;;;;5022466;28;20227;-78
2020/12/11 13:12:01;;;;;;;19.08;11.75;;;5.40;55.70;;;;;;5022932;28;20209;-80
2020/12/11 13:14:28;;;;;;;16.05;11.50;;;5.50;55.80;;;;;;5026023;28;20213;-77